Time;durP1;ratioP1;P1;durP2;ratioP2;P2;SDS_P1;SDS_P2;PMS_P1;PMS_P2;Temp;Humidity;BMP_temperature;BMP_pressure;BME280_temperature;BME280_humidity;BME280_pressure;Samples;Min_cycle;Max_cycle;Signal;HPM_P1;HPM_P2
2023/03/21 00:01:11;;;;;;;45.90;21.90;;;;;;;;;;4978180;28;20096;-87
2023/03/21 00:03:37;;;;;;;45.67;23.15;;;;;;;;;;4965320;28;20058;-87
2023/03/21 00:06:10;;;;;;;48.47;21.67;;;9.50;99.90;;;;;;4977929;28;20046;-87
2023/03/21 00:08:36;;;;;;;45.53;21.80;;;;;;;;;;4960861;28;20089;-86
2023/03/21 00:11:04;;;;;;;44.85;21.90;;;;;;;;;;4963633;28;20104;-86
2023/03/21 00:13:37;;;;;;;50.63;22.92;;;;;;;;;;4981070;28;20049;-86
2023/03/21 00:16:15;;;;;;;51.78;23.50;;;9.40;99.90;;;;;;4968957;28;20062;-87
2023/03/21 00:18:51;;;;;;;48.55;22.65;;;9.60;99.90;;;;;;4984059;28;20045;-87
2023/03/21 00:21:19;;;;;;;46.88;22.45;;;9.50;99.90;;;;;;4951905;28;20045;-86
2023/03/21 00:23:45;;;;;;;39.70;21.40;;;;;;;;;;4962231;28;20607;-87
2023/03/21 00:26:12;;;;;;;43.90;22.70;;;;;;;;;;4946508;28;20035;-87
2023/03/21 00:28:39;;;;;;;50.40;24.75;;;9.50;99.90;;;;;;4963702;28;20042;-87
2023/03/21 00:31:05;;;;;;;52.90;23.88;;;;;;;;;;4963570;28;20047;-87
2023/03/21 00:33:31;;;;;;;51.47;24.02;;;;;;;;;;4977830;28;20062;-86
2023/03/21 00:35:57;;;;;;;51.42;23.42;;;;;;;;;;4944887;29;20320;-87
2023/03/21 00:38:24;;;;;;;61.05;24.77;;;;;;;;;;4950827;28;20093;-86
2023/03/21 00:40:50;;;;;;;49.88;22.08;;;;;;;;;;4975407;28;20508;-87
2023/03/21 00:43:18;;;;;;;54.95;23.73;;;;;;;;;;4956481;28;20485;-87
2023/03/21 00:45:48;;;;;;;43.50;22.13;;;;;;;;;;4983368;28;20058;-87
2023/03/21 00:48:16;;;;;;;42.05;21.42;;;;;;;;;;4967132;28;20055;-87
2023/03/21 00:50:45;;;;;;;38.20;20.30;;;9.50;99.90;;;;;;4960898;28;20047;-87
2023/03/21 00:53:11;;;;;;;48.75;23.30;;;;;;;;;;4962435;28;20539;-87
2023/03/21 00:55:37;;;;;;;47.17;23.48;;;;;;;;;;4950715;28;20043;-86
2023/03/21 00:58:04;;;;;;;40.83;22.05;;;9.50;99.90;;;;;;4946874;28;20106;-87
2023/03/21 01:00:31;;;;;;;50.70;24.88;;;;;;;;;;4963509;28;20049;-87
2023/03/21 01:03:04;;;;;;;44.15;23.15;;;;;;;;;;4966731;28;20050;-87
2023/03/21 01:08:15;;;;;;;;;;;;;;;;;;4962530;28;20082;-86
2023/03/21 01:10:43;;;;;;;47.22;23.15;;;;;;;;;;4962134;28;20101;-86
2023/03/21 01:13:09;;;;;;;45.10;22.73;;;;;;;;;;4964146;28;20055;-86
2023/03/21 01:15:36;;;;;;;49.97;24.45;;;;;;;;;;4961955;28;20511;-87
2023/03/21 01:18:02;;;;;;;41.65;23.23;;;;;;;;;;4957201;28;20053;-87
2023/03/21 01:20:28;;;;;;;44.97;24.15;;;;;;;;;;4948251;28;20509;-87
2023/03/21 01:22:54;;;;;;;40.42;22.17;;;;;;;;;;4983129;28;20524;-87
2023/03/21 01:25:20;;;;;;;40.92;22.23;;;;;;;;;;4973696;28;20046;-87
2023/03/21 01:27:46;;;;;;;44.78;23.17;;;;;;;;;;4968929;28;20074;-87
2023/03/21 01:30:12;;;;;;;38.85;22.23;;;;;;;;;;4980461;28;20046;-87
2023/03/21 01:32:39;;;;;;;42.08;23.38;;;;;;;;;;4944765;28;20050;-87
2023/03/21 01:35:05;;;;;;;43.60;22.45;;;;;;;;;;4967948;28;20481;-87
2023/03/21 01:37:31;;;;;;;44.50;23.17;;;;;;;;;;4986230;28;20845;-87
2023/03/21 01:39:57;;;;;;;42.75;22.60;;;;;;;;;;4965598;28;20051;-87
2023/03/21 01:42:23;;;;;;;36.58;21.75;;;;;;;;;;4963050;28;20106;-87
2023/03/21 01:44:56;;;;;;;34.90;19.52;;;;;;;;;;4966298;28;20051;-87
2023/03/21 01:47:22;;;;;;;35.72;19.48;;;;;;;;;;4959463;28;20125;-87
2023/03/21 01:49:50;;;;;;;37.70;20.13;;;;;;;;;;4961821;28;20916;-87
2023/03/21 01:52:36;;;;;;;37.88;19.98;;;;;;;;;;4960928;28;20038;-87
2023/03/21 01:55:03;;;;;;;36.13;21.00;;;;;;;;;;4940016;29;20055;-87
2023/03/21 01:57:32;;;;;;;36.90;20.98;;;;;;;;;;4950203;28;20055;-87
2023/03/21 02:00:11;;;;;;;35.65;20.35;;;;;;;;;;4948564;28;20043;-87
2023/03/21 02:02:54;;;;;;;39.58;20.38;;;;;;;;;;4951251;28;20074;-87
2023/03/21 02:05:40;;;;;;;36.00;20.10;;;;;;;;;;4964379;28;20067;-87
2023/03/21 02:08:06;;;;;;;41.45;20.77;;;;;;;;;;4967010;28;20046;-87
2023/03/21 02:10:32;;;;;;;40.00;20.70;;;;;;;;;;4965428;28;20051;-87
2023/03/21 02:13:08;;;;;;;39.55;20.05;;;;;;;;;;4968226;28;20054;-87
2023/03/21 02:15:38;;;;;;;35.67;19.65;;;;;;;;;;4960354;28;20053;-87
2023/03/21 02:18:12;;;;;;;39.53;18.30;;;;;;;;;;4974673;28;20375;-87
2023/03/21 02:21:13;;;;;;;36.58;18.25;;;;;;;;;;4959265;28;20480;-86
2023/03/21 02:23:48;;;;;;;32.63;17.17;;;;;;;;;;4893042;29;20055;-87
2023/03/21 02:26:34;;;;;;;30.67;16.73;;;;;;;;;;4954446;28;20065;-86
2023/03/21 02:29:12;;;;;;;35.53;17.08;;;;;;;;;;4947336;28;20078;-87
2023/03/21 02:31:42;;;;;;;29.85;15.63;;;;;;;;;;4962491;28;20062;-87
2023/03/21 02:34:14;;;;;;;31.92;16.58;;;;;;;;;;4977514;28;20055;-87
2023/03/21 02:36:49;;;;;;;26.60;14.18;;;;;;;;;;4960685;28;20043;-87
2023/03/21 02:39:25;;;;;;;25.58;14.27;;;9.60;99.90;;;;;;4947153;28;20465;-87
2023/03/21 02:41:51;;;;;;;25.40;14.90;;;;;;;;;;4979620;28;20149;-87
2023/03/21 02:44:27;;;;;;;26.77;14.68;;;;;;;;;;4970574;28;20539;-87
2023/03/21 02:46:59;;;;;;;27.65;13.20;;;;;;;;;;4951495;28;20524;-87
2023/03/21 02:49:30;;;;;;;21.00;12.27;;;;;;;;;;4952353;28;20055;-87
2023/03/21 02:51:58;;;;;;;22.73;12.90;;;;;;;;;;4965444;28;20055;-87
2023/03/21 02:54:24;;;;;;;21.77;11.88;;;;;;;;;;4987976;28;20042;-87
2023/03/21 02:56:52;;;;;;;21.50;12.45;;;9.70;99.90;;;;;;4953439;28;20050;-87
2023/03/21 02:59:20;;;;;;;21.77;12.15;;;;;;;;;;4943207;28;20035;-87
2023/03/21 03:01:46;;;;;;;22.42;11.77;;;;;;;;;;4966442;28;20043;-87
2023/03/21 03:04:19;;;;;;;23.90;13.88;;;;;;;;;;4973080;28;20063;-87
2023/03/21 03:07:00;;;;;;;22.88;12.75;;;;;;;;;;4945228;28;20045;-87
2023/03/21 03:09:43;;;;;;;22.60;12.65;;;;;;;;;;4965834;28;20162;-87
2023/03/21 03:12:39;;;;;;;22.70;12.57;;;9.60;99.90;;;;;;4969263;28;20400;-86
2023/03/21 03:15:34;;;;;;;22.30;13.35;;;;;;;;;;4961900;28;20074;-87
2023/03/21 03:18:19;;;;;;;26.05;13.90;;;;;;;;;;4922193;28;20117;-87
2023/03/21 03:20:53;;;;;;;24.88;14.50;;;;;;;;;;4964040;28;20038;-87
2023/03/21 03:23:37;;;;;;;22.95;14.15;;;;;;;;;;4964791;28;20055;-86
2023/03/21 03:26:03;;;;;;;27.20;14.75;;;;;;;;;;4972739;28;20046;-87
2023/03/21 03:28:36;;;;;;;26.15;14.40;;;;;;;;;;4987094;28;20578;-87
2023/03/21 03:31:03;;;;;;;23.23;13.73;;;;;;;;;;4951236;28;20050;-87
2023/03/21 03:33:29;;;;;;;26.77;16.27;;;;;;;;;;4975474;28;20071;-87
2023/03/21 03:35:57;;;;;;;26.05;14.88;;;;;;;;;;4965041;28;20489;-87
2023/03/21 03:38:24;;;;;;;25.27;13.93;;;;;;;;;;4951002;28;20089;-87
2023/03/21 03:40:58;;;;;;;27.60;16.40;;;;;;;;;;4971853;28;20038;-87
2023/03/21 03:43:29;;;;;;;25.70;15.32;;;;;;;;;;4964578;28;20073;-87
2023/03/21 03:46:02;;;;;;;27.15;15.85;;;;;;;;;;4962787;28;20050;-87
2023/03/21 03:48:45;;;;;;;36.60;15.20;;;;;;;;;;4965182;28;20076;-87
2023/03/21 03:51:15;;;;;;;26.90;15.13;;;;;;;;;;4961679;28;20417;-87
2023/03/21 03:53:43;;;;;;;27.02;15.27;;;;;;;;;;4965019;28;20047;-87
2023/03/21 03:56:10;;;;;;;27.15;16.42;;;;;;;;;;4967000;28;20046;-87
2023/03/21 03:58:38;;;;;;;31.60;16.20;;;;;;;;;;4954242;28;20043;-86
2023/03/21 04:01:04;;;;;;;30.60;16.15;;;;;;;;;;4977397;28;20501;-87
2023/03/21 04:03:30;;;;;;;29.73;15.85;;;;;;;;;;4985347;28;20864;-87
2023/03/21 04:05:56;;;;;;;32.05;15.85;;;;;;;;;;4960638;28;20330;-87
2023/03/21 04:08:23;;;;;;;33.38;16.25;;;;;;;;;;4966050;28;20512;-87
2023/03/21 04:10:49;;;;;;;31.92;16.17;;;;;;;;;;4965486;28;20145;-87
2023/03/21 04:13:15;;;;;;;30.98;14.80;;;;;;;;;;4950512;28;20098;-87
2023/03/21 04:15:41;;;;;;;35.67;17.60;;;;;;;;;;4961483;28;20146;-87
2023/03/21 04:18:07;;;;;;;29.55;16.30;;;;;;;;;;4965905;28;20042;-87
2023/03/21 04:20:33;;;;;;;30.65;16.55;;;;;;;;;;4973292;28;20090;-87
2023/03/21 04:22:59;;;;;;;33.58;17.25;;;;;;;;;;4953808;28;20420;-87
2023/03/21 04:25:27;;;;;;;25.23;14.80;;;;;;;;;;4964971;28;20043;-87
2023/03/21 04:27:54;;;;;;;31.45;15.02;;;;;;;;;;4983639;28;20077;-87
2023/03/21 04:30:23;;;;;;;31.38;15.32;;;;;;;;;;4950076;28;20047;-86
2023/03/21 04:32:55;;;;;;;31.42;16.13;;;;;;;;;;4956998;28;20418;-87
2023/03/21 04:35:21;;;;;;;32.47;15.57;;;;;;;;;;4954393;28;20475;-87
2023/03/21 04:37:47;;;;;;;26.42;14.68;;;;;;;;;;4967440;28;20574;-87
2023/03/21 04:40:16;;;;;;;31.83;15.85;;;;;;;;;;4962723;28;20043;-87
2023/03/21 04:42:43;;;;;;;28.77;14.98;;;;;;;;;;4963529;28;20049;-87
2023/03/21 04:45:09;;;;;;;31.85;16.27;;;;;;;;;;4976565;28;20042;-87
2023/03/21 04:47:35;;;;;;;30.80;16.85;;;;;;;;;;4979009;28;20043;-87
2023/03/21 04:50:01;;;;;;;35.78;18.15;;;;;;;;;;4950018;28;20070;-87
2023/03/21 04:52:27;;;;;;;35.42;17.83;;;;;;;;;;4984060;28;20506;-87
2023/03/21 04:54:53;;;;;;;32.10;17.63;;;;;;;;;;4985189;28;20046;-87
2023/03/21 04:57:19;;;;;;;30.40;17.95;;;;;;;;;;4962319;28;20050;-87
2023/03/21 04:59:45;;;;;;;32.80;18.25;;;;;;;;;;4973706;28;20042;-87
2023/03/21 05:02:11;;;;;;;30.27;17.77;;;;;;;;;;4974326;28;20046;-86
2023/03/21 05:04:38;;;;;;;34.72;18.83;;;;;;;;;;4942108;28;20046;-86
2023/03/21 05:07:04;;;;;;;32.45;18.55;;;;;;;;;;4961645;28;20056;-87
2023/03/21 05:09:30;;;;;;;34.08;18.35;;;;;;;;;;4958740;28;20116;-86
2023/03/21 05:11:56;;;;;;;27.65;17.25;;;;;;;;;;4978742;28;20047;-86
2023/03/21 05:14:24;;;;;;;33.33;18.45;;;;;;;;;;4961317;28;20523;-87
2023/03/21 05:16:55;;;;;;;32.97;18.25;;;;;;;;;;4952403;28;20070;-87
2023/03/21 05:19:34;;;;;;;31.15;17.30;;;;;;;;;;4961094;28;20053;-86
2023/03/21 05:22:05;;;;;;;28.25;16.70;;;9.90;99.90;;;;;;4963581;28;20080;-86
2023/03/21 05:24:31;;;;;;;28.27;16.98;;;;;;;;;;4975077;28;20519;-87
2023/03/21 05:27:01;;;;;;;28.10;17.75;;;;;;;;;;4960195;28;20047;-86
2023/03/21 05:29:27;;;;;;;29.27;17.00;;;;;;;;;;4952088;28;20046;-87
2023/03/21 05:31:53;;;;;;;34.17;18.98;;;;;;;;;;4952202;28;20470;-87
2023/03/21 05:34:19;;;;;;;35.78;19.08;;;;;;;;;;4966094;28;20054;-87
2023/03/21 05:36:45;;;;;;;32.45;18.05;;;;;;;;;;4946639;28;20043;-86
2023/03/21 05:39:12;;;;;;;32.47;19.15;;;;;;;;;;4975875;28;20039;-87
2023/03/21 05:41:38;;;;;;;34.97;19.05;;;;;;;;;;4966843;28;20089;-87
2023/03/21 05:44:04;;;;;;;36.65;19.90;;;;;;;;;;4968693;28;20397;-87
2023/03/21 05:46:30;;;;;;;37.83;20.55;;;;;;;;;;4983313;28;20050;-87
2023/03/21 05:48:56;;;;;;;35.78;20.58;;;;;;;;;;4968187;28;20046;-87
2023/03/21 05:51:22;;;;;;;34.53;20.77;;;;;;;;;;4964624;28;20393;-87
2023/03/21 05:53:48;;;;;;;36.65;19.58;;;;;;;;;;4966270;28;20444;-87
2023/03/21 05:56:15;;;;;;;42.13;22.17;;;;;;;;;;4958589;28;20049;-86
2023/03/21 05:58:41;;;;;;;36.25;21.05;;;;;;;;;;4962865;28;20097;-87
2023/03/21 06:01:07;;;;;;;36.08;21.63;;;;;;;;;;4963042;28;20461;-86
2023/03/21 06:03:33;;;;;;;39.67;22.77;;;;;;;;;;4947654;28;20507;-86
2023/03/21 06:05:59;;;;;;;37.55;21.67;;;;;;;;;;4954848;28;20052;-87
2023/03/21 06:08:25;;;;;;;33.10;19.27;;;;;;;;;;4974527;28;20050;-86
2023/03/21 06:10:51;;;;;;;36.00;19.45;;;;;;;;;;4962264;28;20038;-86
2023/03/21 06:13:17;;;;;;;35.58;20.25;;;;;;;;;;4954663;28;20046;-87
2023/03/21 06:15:43;;;;;;;35.55;20.05;;;;;;;;;;4964562;28;20446;-86
2023/03/21 06:18:09;;;;;;;31.00;18.40;;;;;;;;;;4964234;28;20057;-86
2023/03/21 06:20:35;;;;;;;32.25;17.70;;;;;;;;;;4967024;28;20062;-87
2023/03/21 06:23:01;;;;;;;27.55;16.30;;;;;;;;;;4987761;28;20053;-86
2023/03/21 06:25:27;;;;;;;29.00;18.00;;;;;;;;;;4971117;28;20133;-86
2023/03/21 06:27:53;;;;;;;26.38;16.80;;;;;;;;;;4966019;28;20153;-86
2023/03/21 06:30:19;;;;;;;30.17;18.25;;;;;;;;;;4976288;28;20505;-86
2023/03/21 06:32:45;;;;;;;25.40;16.20;;;;;;;;;;4962521;28;20089;-87
2023/03/21 06:35:11;;;;;;;25.23;15.68;;;;;;;;;;4957164;28;20082;-86
2023/03/21 06:37:37;;;;;;;25.73;16.13;;;;;;;;;;4973936;28;20088;-87
2023/03/21 06:40:04;;;;;;;28.45;16.23;;;;;;;;;;4965349;28;20125;-87
2023/03/21 06:42:31;;;;;;;22.35;14.25;;;;;;;;;;4964877;28;20049;-87
2023/03/21 06:44:57;;;;;;;21.65;14.65;;;;;;;;;;4959714;28;20069;-86
2023/03/21 06:47:24;;;;;;;23.75;14.20;;;;;;;;;;4966381;28;20047;-86
2023/03/21 06:49:50;;;;;;;21.48;13.20;;;;;;;;;;4956897;28;20047;-87
2023/03/21 06:52:16;;;;;;;21.67;13.82;;;;;;;;;;4977519;28;20045;-86
2023/03/21 06:54:42;;;;;;;25.80;14.32;;;;;;;;;;4954193;28;20073;-86
2023/03/21 06:57:08;;;;;;;21.38;13.55;;;;;;;;;;4966148;28;20053;-87
2023/03/21 06:59:35;;;;;;;23.00;14.85;;;;;;;;;;4959972;28;20042;-87
2023/03/21 07:02:01;;;;;;;21.58;13.63;;;;;;;;;;4959215;28;20522;-86
2023/03/21 07:04:27;;;;;;;20.45;13.65;;;;;;;;;;4953538;28;20125;-87
2023/03/21 07:06:53;;;;;;;20.00;13.45;;;;;;;;;;4966151;28;20472;-86
2023/03/21 07:09:23;;;;;;;22.02;14.50;;;;;;;;;;4951548;28;20124;-86
2023/03/21 07:11:52;;;;;;;20.13;13.15;;;;;;;;;;4954063;28;20377;-86
2023/03/21 07:14:18;;;;;;;21.35;13.82;;;;;;;;;;4958696;28;20058;-86
2023/03/21 07:16:44;;;;;;;19.88;13.20;;;;;;;;;;4963025;28;20038;-87
2023/03/21 07:19:10;;;;;;;17.70;12.43;;;;;;;;;;4965197;28;20510;-86
2023/03/21 07:21:36;;;;;;;19.67;12.70;;;;;;;;;;4955779;28;20237;-86
2023/03/21 07:24:02;;;;;;;18.05;11.90;;;;;;;;;;4972071;28;20128;-86
2023/03/21 07:26:28;;;;;;;16.60;11.85;;;;;;;;;;4964326;28;20038;-87
2023/03/21 07:28:54;;;;;;;17.05;10.07;;;;;;;;;;4954224;28;20508;-86
2023/03/21 07:31:20;;;;;;;16.27;10.27;;;;;;;;;;4964943;28;20486;-86
2023/03/21 07:33:46;;;;;;;14.20;9.88;;;;;;;;;;4983558;28;20054;-86
2023/03/21 07:36:14;;;;;;;16.30;10.77;;;;;;;;;;4969357;28;20053;-87
2023/03/21 07:38:40;;;;;;;16.05;10.77;;;;;;;;;;4954915;28;20049;-87
2023/03/21 07:41:06;;;;;;;12.77;9.20;;;;;;;;;;4958650;28;20046;-88
2023/03/21 07:43:32;;;;;;;12.25;9.63;;;;;;;;;;4966458;28;20046;-87
2023/03/21 07:45:58;;;;;;;14.45;9.70;;;10.20;99.90;;;;;;4953844;28;20517;-87
2023/03/21 07:48:24;;;;;;;14.77;9.95;;;;;;;;;;4959148;28;20049;-86
2023/03/21 07:50:50;;;;;;;12.10;9.70;;;;;;;;;;4961856;28;20049;-86
2023/03/21 07:53:16;;;;;;;14.68;9.95;;;;;;;;;;4966362;28;20055;-87
2023/03/21 07:55:42;;;;;;;16.10;10.77;;;;;;;;;;4960938;28;20035;-88
2023/03/21 07:58:08;;;;;;;13.10;9.95;;;;;;;;;;4958943;28;20455;-88
2023/03/21 08:00:34;;;;;;;14.20;10.88;;;;;;;;;;4964979;28;20408;-88
2023/03/21 08:03:00;;;;;;;17.95;12.40;;;;;;;;;;4961631;28;20092;-88
2023/03/21 08:05:26;;;;;;;16.73;12.13;;;;;;;;;;4957491;28;20042;-88
2023/03/21 08:07:52;;;;;;;19.48;13.45;;;;;;;;;;4972067;28;20113;-88
2023/03/21 08:10:19;;;;;;;18.70;13.00;;;;;;;;;;4969373;28;20047;-88
2023/03/21 08:12:45;;;;;;;20.00;13.88;;;;;;;;;;4966644;28;20038;-88
2023/03/21 08:15:12;;;;;;;21.10;14.45;;;;;;;;;;4948429;28;20035;-88
2023/03/21 08:17:38;;;;;;;25.23;15.55;;;;;;;;;;4960688;28;20042;-89
2023/03/21 08:20:08;;;;;;;25.45;15.55;;;;;;;;;;4978929;28;20038;-89
2023/03/21 08:22:36;;;;;;;22.58;15.20;;;;;;;;;;4966044;28;20543;-89
2023/03/21 08:25:06;;;;;;;25.77;15.50;;;;;;;;;;4952177;28;20054;-89
2023/03/21 08:27:33;;;;;;;23.83;15.48;;;;;;;;;;4960025;28;20053;-88
2023/03/21 08:30:00;;;;;;;23.50;15.85;;;;;;;;;;4961410;28;20417;-88
2023/03/21 08:32:29;;;;;;;24.52;15.82;;;;;;;;;;4941964;28;20554;-88
2023/03/21 08:35:02;;;;;;;26.73;17.00;;;10.20;99.90;;;;;;4946842;28;20063;-89
2023/03/21 08:37:28;;;;;;;27.17;17.85;;;;;;;;;;4944871;28;20046;-88
2023/03/21 08:39:54;;;;;;;30.88;15.93;;;;;;;;;;4962773;28;20042;-88
2023/03/21 08:42:21;;;;;;;25.40;17.00;;;;;;;;;;4963579;28;20034;-89
2023/03/21 08:44:48;;;;;;;25.42;17.33;;;;;;;;;;4958542;28;20531;-89
2023/03/21 08:47:23;;;;;;;30.08;17.88;;;;;;;;;;5063425;27;20419;-64
2023/03/21 08:49:49;;;;;;;31.92;18.58;;;;;;;;;;5041344;28;20625;-64
2023/03/21 08:52:15;;;;;;;29.70;16.67;;;;;;;;;;5041828;28;20033;-64
2023/03/21 08:54:43;;;;;;;30.90;17.85;;;;;;;;;;5062329;28;20075;-64
2023/03/21 08:57:10;;;;;;;29.73;17.88;;;;;;;;;;5042552;28;20056;-64
2023/03/21 08:59:36;;;;;;;32.60;17.80;;;;;;;;;;5039142;28;20057;-64
2023/03/21 09:02:02;;;;;;;35.45;19.77;;;;;;;;;;5043067;28;20041;-64
2023/03/21 09:04:29;;;;;;;27.10;17.30;;;;;;;;;;5059418;28;20045;-64
2023/03/21 09:06:55;;;;;;;30.10;16.58;;;10.00;99.90;;;;;;5045717;28;20049;-64
2023/03/21 09:09:21;;;;;;;28.60;17.63;;;9.90;99.90;;;;;;5044718;28;20456;-64
2023/03/21 09:11:47;;;;;;;29.13;17.23;;;;;;;;;;5045909;28;20045;-64
2023/03/21 09:14:13;;;;;;;29.77;17.35;;;;;;;;;;5043075;28;20037;-65
2023/03/21 09:16:40;;;;;;;28.67;17.13;;;;;;;;;;5049487;28;20607;-65
2023/03/21 09:19:07;;;;;;;28.15;17.95;;;;;;;;;;5024970;28;20060;-64
2023/03/21 09:21:34;;;;;;;31.52;16.98;;;;;;;;;;5068063;28;20701;-63
2023/03/21 09:24:01;;;;;;;28.15;15.63;;;;;;;;;;5060857;28;20057;-64
2023/03/21 09:26:27;;;;;;;36.05;17.77;;;9.90;99.90;;;;;;5043692;28;20439;-63
2023/03/21 09:28:54;;;;;;;34.90;17.80;;;;;;;;;;5040954;28;20165;-64
2023/03/21 09:31:23;;;;;;;33.55;17.27;;;;;;;;;;5052887;28;20487;-64
2023/03/21 09:33:50;;;;;;;30.80;16.52;;;10.00;99.90;;;;;;5050267;28;20037;-63
2023/03/21 09:36:18;;;;;;;34.00;17.58;;;10.00;99.90;;;;;;5050437;28;20049;-64
2023/03/21 09:38:44;;;;;;;33.92;17.00;;;;;;;;;;5060843;28;20041;-64
2023/03/21 09:41:29;;;;;;;28.88;16.23;;;;;;;;;;5045573;28;20045;-64
2023/03/21 09:44:06;;;;;;;26.50;16.63;;;9.80;99.90;;;;;;5042135;28;21315;-65
2023/03/21 09:46:51;;;;;;;34.20;16.48;;;;;;;;;;5042726;28;20057;-67
2023/03/21 09:49:37;;;;;;;31.20;17.67;;;;;;;;;;5061013;28;20094;-67
2023/03/21 09:52:19;;;;;;;30.23;16.08;;;;;;;;;;5039593;28;20051;-67
2023/03/21 09:54:45;;;;;;;31.67;16.40;;;;;;;;;;5042093;28;20049;-67
2023/03/21 09:57:18;;;;;;;30.92;16.52;;;;;;;;;;5060267;28;20045;-67
2023/03/21 09:59:45;;;;;;;34.92;16.73;;;;;;;;;;5029052;28;20052;-67
2023/03/21 10:02:35;;;;;;;32.95;17.65;;;;;;;;;;5029900;28;20053;-67
2023/03/21 10:05:08;;;;;;;29.02;16.77;;;10.10;99.90;;;;;;5031726;28;20041;-70
2023/03/21 10:07:38;;;;;;;32.85;16.98;;;;;;;;;;5024500;28;20048;-69
2023/03/21 10:10:06;;;;;;;31.67;14.30;;;;;;;;;;5038611;28;20048;-70
2023/03/21 10:12:32;;;;;;;25.52;14.57;;;10.40;99.90;;;;;;5034096;28;20048;-69
2023/03/21 10:15:00;;;;;;;28.23;14.55;;;;;;;;;;5030936;28;20037;-70
2023/03/21 10:17:32;;;;;;;29.45;14.82;;;;;;;;;;5032623;28;20053;-68
2023/03/21 10:20:15;;;;;;;27.58;13.52;;;;;;;;;;5025883;28;20941;-67
2023/03/21 10:22:43;;;;;;;30.80;14.40;;;;;;;;;;5051587;28;20129;-67
2023/03/21 10:25:14;;;;;;;32.30;16.08;;;10.40;99.90;;;;;;5044266;28;20048;-66
2023/03/21 10:27:40;;;;;;;32.20;15.02;;;;;;;;;;5059087;28;20047;-67
2023/03/21 10:30:09;;;;;;;30.45;15.38;;;10.50;99.90;;;;;;5030284;28;20060;-68
2023/03/21 10:32:36;;;;;;;24.83;13.40;;;;;;;;;;5029948;28;20125;-68
2023/03/21 10:35:05;;;;;;;30.17;16.13;;;10.50;99.90;;;;;;5010428;28;20044;-68
2023/03/21 10:37:31;;;;;;;23.17;13.70;;;;;;;;;;5027363;28;20407;-68
2023/03/21 10:39:57;;;;;;;34.25;16.48;;;;;;;;;;5029509;28;20061;-68
2023/03/21 10:42:28;;;;;;;27.60;14.80;;;10.70;99.90;;;;;;5050542;28;20115;-68
2023/03/21 10:44:56;;;;;;;23.80;14.23;;;;;;;;;;5049246;28;20038;-68
2023/03/21 10:47:32;;;;;;;25.10;13.90;;;;;;;;;;5034580;28;20057;-68
2023/03/21 10:50:05;;;;;;;24.13;13.40;;;;;;;;;;5036808;28;20044;-68
2023/03/21 10:52:31;;;;;;;21.45;13.48;;;11.00;99.90;;;;;;5037570;28;20128;-68
2023/03/21 10:55:24;;;;;;;24.23;13.95;;;10.90;99.90;;;;;;5038964;28;20095;-68
2023/03/21 10:57:53;;;;;;;23.55;12.25;;;;;;;;;;5027480;28;20049;-68
2023/03/21 11:00:21;;;;;;;23.05;12.32;;;;;;;;;;5023367;28;20048;-68
2023/03/21 11:02:49;;;;;;;21.95;13.48;;;11.20;99.90;;;;;;5027596;28;20037;-68
2023/03/21 11:05:21;;;;;;;25.13;13.05;;;;;;;;;;5049079;28;20041;-68
2023/03/21 11:07:48;;;;;;;22.98;13.35;;;;;;;;;;5027007;28;20041;-68
2023/03/21 11:10:33;;;;;;;22.58;12.88;;;11.20;99.90;;;;;;5028904;28;20056;-68
2023/03/21 11:13:01;;;;;;;18.80;11.38;;;;;;;;;;5031487;28;20037;-68
2023/03/21 11:15:47;;;;;;;20.88;12.63;;;11.30;99.90;;;;;;5032960;28;20048;-68
2023/03/21 11:18:24;;;;;;;20.33;11.43;;;;;;;;;;5026161;28;20057;-68
2023/03/21 11:20:54;;;;;;;23.20;11.23;;;11.50;99.90;;;;;;5048855;28;20047;-68
2023/03/21 11:23:21;;;;;;;23.50;11.88;;;;;;;;;;5026227;28;20571;-68
2023/03/21 11:25:49;;;;;;;20.05;11.38;;;11.70;99.90;;;;;;5031801;28;20051;-68
2023/03/21 11:28:18;;;;;;;17.63;10.63;;;11.60;99.90;;;;;;5051455;28;20132;-67
2023/03/21 11:30:54;;;;;;;19.25;10.80;;;11.50;99.90;;;;;;5024322;28;20037;-68
2023/03/21 11:33:21;;;;;;;20.80;11.65;;;;;;;;;;5051487;28;20084;-68
2023/03/21 11:36:00;;;;;;;19.20;11.93;;;;;;;;;;5014885;28;20045;-68
2023/03/21 11:38:36;;;;;;;19.10;9.65;;;11.70;99.90;;;;;;5019406;28;20050;-68
2023/03/21 11:41:03;;;;;;;17.40;9.98;;;11.80;99.90;;;;;;5028475;28;20116;-68
2023/03/21 11:43:37;;;;;;;16.27;10.15;;;11.70;99.90;;;;;;5040675;28;20048;-68
2023/03/21 11:46:08;;;;;;;16.60;8.30;;;11.60;99.90;;;;;;5037798;28;20049;-68
2023/03/21 11:48:43;;;;;;;14.98;9.90;;;11.70;99.90;;;;;;5030590;28;20049;-67
2023/03/21 11:51:29;;;;;;;16.55;9.93;;;11.60;99.90;;;;;;5022762;28;20642;-68
2023/03/21 11:54:09;;;;;;;18.00;9.00;;;11.80;99.90;;;;;;5023257;28;20053;-67
2023/03/21 11:56:38;;;;;;;17.55;8.68;;;;;;;;;;5030721;28;20041;-68
2023/03/21 11:59:31;;;;;;;17.98;9.20;;;11.70;99.90;;;;;;5033425;28;20087;-68
2023/03/21 12:02:01;;;;;;;16.25;8.27;;;;;;;;;;5022185;28;20081;-68
2023/03/21 12:04:51;;;;;;;13.43;8.30;;;11.70;99.90;;;;;;5025948;28;20045;-68
2023/03/21 12:07:54;;;;;;;17.30;8.82;;;11.70;99.90;;;;;;5043626;28;20100;-68
2023/03/21 12:10:32;;;;;;;16.30;8.10;;;;;;;;;;5023157;28;20045;-68
2023/03/21 12:13:23;;;;;;;14.52;7.95;;;11.70;99.90;;;;;;5026137;28;20597;-68
2023/03/21 12:16:23;;;;;;;15.20;8.05;;;11.70;99.90;;;;;;5025840;28;20792;-68
2023/03/21 12:18:57;;;;;;;13.82;7.43;;;11.60;99.90;;;;;;5026191;28;20499;-68
2023/03/21 12:21:31;;;;;;;11.48;8.45;;;11.50;99.90;;;;;;5022746;28;20044;-68
2023/03/21 12:23:57;;;;;;;12.43;7.07;;;;;;;;;;5027150;28;20554;-68
2023/03/21 12:26:31;;;;;;;19.13;8.60;;;11.50;99.90;;;;;;5025865;28;20041;-69
2023/03/21 12:29:30;;;;;;;17.40;9.00;;;11.30;99.90;;;;;;5026446;28;20041;-68
2023/03/21 12:32:08;;;;;;;13.30;9.15;;;11.30;99.90;;;;;;5024827;28;20041;-68
2023/03/21 12:34:54;;;;;;;13.95;8.65;;;11.50;99.90;;;;;;5030431;28;20142;-68
2023/03/21 12:37:58;;;;;;;16.92;8.00;;;11.60;99.90;;;;;;5029283;28;20080;-68
2023/03/21 12:40:57;;;;;;;16.95;8.68;;;11.70;99.90;;;;;;5043896;28;20402;-68
2023/03/21 12:43:33;;;;;;;13.48;8.23;;;11.70;99.90;;;;;;5028746;28;20052;-68
2023/03/21 12:45:59;;;;;;;;;;;;;;;;;;5027294;28;20049;-68
2023/03/21 12:48:33;;;;;;;15.98;9.18;;;;;;;;;;5026152;28;19923;-68
2023/03/21 12:51:01;;;;;;;16.48;9.15;;;12.10;99.90;;;;;;5026306;28;20938;-68
2023/03/21 12:53:59;;;;;;;15.73;8.30;;;12.20;99.90;;;;;;5026992;28;20112;-68
2023/03/21 12:56:34;;;;;;;19.90;9.30;;;12.30;99.90;;;;;;5024969;28;20056;-68
2023/03/21 12:59:10;;;;;;;18.00;8.52;;;12.50;99.90;;;;;;5023715;28;20072;-68
2023/03/21 13:01:38;;;;;;;22.17;8.38;;;12.20;99.90;;;;;;5029732;28;20053;-68
2023/03/21 13:04:35;;;;;;;16.70;8.45;;;12.50;99.90;;;;;;5044743;28;20091;-68
2023/03/21 13:07:04;;;;;;;11.63;7.97;;;12.50;99.90;;;;;;5023761;28;20112;-65
2023/03/21 13:09:40;;;;;;;13.77;8.88;;;12.50;99.90;;;;;;5037037;28;20447;-65
2023/03/21 13:12:38;;;;;;;15.50;8.13;;;12.70;99.90;;;;;;5025948;28;20499;-64
2023/03/21 13:15:14;;;;;;;17.35;8.90;;;12.40;99.90;;;;;;5020810;28;20524;-64
2023/03/21 13:18:03;;;;;;;15.32;8.63;;;12.60;99.90;;;;;;5030622;28;20044;-64
2023/03/21 13:20:48;;;;;;;14.52;9.30;;;12.30;99.90;;;;;;5028395;28;20049;-64
2023/03/21 13:23:14;;;;;;;19.60;9.40;;;12.50;99.90;;;;;;5021750;28;20048;-64
2023/03/21 13:25:47;;;;;;;16.40;8.77;;;12.70;99.90;;;;;;5030196;28;20041;-64
2023/03/21 13:28:19;;;;;;;16.95;9.32;;;;;;;;;;5024485;28;20084;-64
2023/03/21 13:30:47;;;;;;;16.55;8.77;;;12.50;99.90;;;;;;5049967;28;20567;-64
2023/03/21 13:33:23;;;;;;;12.52;8.43;;;12.30;99.90;;;;;;5029389;28;20045;-64
2023/03/21 13:35:59;;;;;;;19.60;9.27;;;12.30;99.90;;;;;;5049079;28;20056;-64
2023/03/21 13:38:28;;;;;;;16.40;9.82;;;12.20;99.90;;;;;;5032766;28;20064;-64
2023/03/21 13:41:00;;;;;;;18.65;8.93;;;12.20;99.90;;;;;;5032374;28;20041;-64
2023/03/21 13:43:42;;;;;;;14.60;8.70;;;12.20;99.90;;;;;;5029614;28;20065;-64
2023/03/21 13:46:11;;;;;;;14.57;8.80;;;12.30;99.90;;;;;;5047638;28;20107;-64
2023/03/21 13:48:52;;;;;;;15.48;8.65;;;12.10;99.90;;;;;;5035027;28;20103;-64
2023/03/21 13:51:51;;;;;;;17.38;9.13;;;12.60;99.90;;;;;;5055151;28;20084;-64
2023/03/21 13:54:28;;;;;;;17.10;9.38;;;12.50;99.90;;;;;;5032169;28;20495;-64
2023/03/21 13:56:57;;;;;;;18.65;8.85;;;12.70;99.90;;;;;;5033210;28;20119;-64
2023/03/21 13:59:44;;;;;;;18.50;10.02;;;12.80;99.90;;;;;;5025185;28;20041;-64
2023/03/21 14:02:27;;;;;;;15.00;9.73;;;12.90;99.90;;;;;;5028675;28;20038;-64
2023/03/21 14:05:02;;;;;;;16.40;9.23;;;12.90;99.90;;;;;;5040102;28;20617;-65
2023/03/21 14:07:48;;;;;;;13.52;8.88;;;;;;;;;;5031059;28;20479;-64
2023/03/21 14:10:33;;;;;;;14.57;9.60;;;13.10;99.90;;;;;;5029466;28;20103;-66
2023/03/21 14:13:00;;;;;;;14.10;8.60;;;;;;;;;;5032181;28;20044;-66